Portada
METAR-TAF:

METAR-TAF

Aeropuertos :

Aeropuerto Internacional de Bucarest-Henri Coandă

Bucarest, Rumania

latitud: 44-33N, longitud: 026-06E, altitud: 95 m

Observación

El informe se hizo hace 26 minutos, a las 21:00 UTC
Viento 9 kt del este-noreste
Temperatura 1°C
Humedad 80%
Presión 1033 hPa
Visibilidad 10 km o más
Cielo cubierto a una altura de 2700 ft

METAR: LROP 172100Z 07009KT 9999 OVC027 01/M02 Q1033 NOSIG

Hora: 23:26 (21:26 UTC)

Pronóstico

El informe se hizo hace 4 horas y 26 minutos, a las 17:00 UTC
Pronóstico válido del 17 a las 18 UTC al 18 a las 18 UTC
Viento 12 kt del este-noreste
Visibilidad 10 km o más
sin nubes por debajo de 1500 m y sin presencia de cumulonimbus.
Probabilidad 40% :
Temporalmente
del 17 a las 22 UTC al 18 a las 06 UTC
Visibilidad: 3000 m
Cielo nuboso a una altura de 1000 ft
neblina

TAF: LROP 171700Z 1718/1818 07012KT CAVOK PROB40 TEMPO 1722/1806 3000 BR BKN010

Observaciones y pronósticos meteorológicos de más de 4000 aeropuertos (mensajes METAR y TAF).

Los puntos amarillos y rojos representan las estaciones disponibles.

Ponga el ratón en el punto deseado para ver el nombre de la estación.

Haga clic para ver las observaciones y los pronósticos meteorológicos.

Para cambiar el mapa : haga clic en los botones verdes con una cruz de color negro para hacer un zoom, en el botón verde con un guión para alejar o en las flechas verdes para mapas adyacentes.


METAR-TAF: